sensor_id;sensor_type;location;lat;lon;timestamp;temperature;humidity
1702;DHT22;848;48.354;10.064;2022-12-18T00:00:41;-4.10;99.90
1702;DHT22;848;48.354;10.064;2022-12-18T00:03:08;-4.10;99.90
1702;DHT22;848;48.354;10.064;2022-12-18T00:05:35;-4.20;99.90
1702;DHT22;848;48.354;10.064;2022-12-18T00:08:03;-4.20;99.90
1702;DHT22;848;48.354;10.064;2022-12-18T00:10:30;-4.10;99.90
1702;DHT22;848;48.354;10.064;2022-12-18T00:12:57;-4.10;99.90
1702;DHT22;848;48.354;10.064;2022-12-18T00:15:23;-4.00;99.90
1702;DHT22;848;48.354;10.064;2022-12-18T00:17:53;-4.10;99.90
1702;DHT22;848;48.354;10.064;2022-12-18T00:20:20;-4.10;99.90
1702;DHT22;848;48.354;10.064;2022-12-18T00:22:51;-4.00;99.90
1702;DHT22;848;48.354;10.064;2022-12-18T00:25:19;-4.00;99.90
1702;DHT22;848;48.354;10.064;2022-12-18T00:27:46;-4.00;99.90
1702;DHT22;848;48.354;10.064;2022-12-18T00:30:13;-4.00;99.90
1702;DHT22;848;48.354;10.064;2022-12-18T00:32:40;-3.90;99.90
1702;DHT22;848;48.354;10.064;2022-12-18T00:35:07;-3.90;99.90
1702;DHT22;848;48.354;10.064;2022-12-18T00:37:34;-3.80;99.90
1702;DHT22;848;48.354;10.064;2022-12-18T00:40:02;-3.80;99.90
1702;DHT22;848;48.354;10.064;2022-12-18T00:42:30;-4.00;99.90
1702;DHT22;848;48.354;10.064;2022-12-18T00:45:15;-4.00;99.90
1702;DHT22;848;48.354;10.064;2022-12-18T00:47:42;-3.90;99.90
1702;DHT22;848;48.354;10.064;2022-12-18T00:50:09;-3.90;99.90
1702;DHT22;848;48.354;10.064;2022-12-18T00:52:36;-3.80;99.90
1702;DHT22;848;48.354;10.064;2022-12-18T00:55:04;-3.80;99.90
1702;DHT22;848;48.354;10.064;2022-12-18T00:57:32;-3.80;99.90
1702;DHT22;848;48.354;10.064;2022-12-18T00:59:59;-3.90;99.90
1702;DHT22;848;48.354;10.064;2022-12-18T01:02:26;-3.80;99.90
1702;DHT22;848;48.354;10.064;2022-12-18T01:04:53;-3.80;99.90
1702;DHT22;848;48.354;10.064;2022-12-18T01:07:20;-3.60;99.90
1702;DHT22;848;48.354;10.064;2022-12-18T01:09:47;-3.70;99.90
1702;DHT22;848;48.354;10.064;2022-12-18T01:12:13;-3.60;99.90
1702;DHT22;848;48.354;10.064;2022-12-18T01:14:42;-3.70;99.90
1702;DHT22;848;48.354;10.064;2022-12-18T01:17:09;-3.30;99.90
1702;DHT22;848;48.354;10.064;2022-12-18T01:19:35;-3.70;99.90
1702;DHT22;848;48.354;10.064;2022-12-18T01:22:02;-3.70;99.90
1702;DHT22;848;48.354;10.064;2022-12-18T01:24:29;-3.80;99.90
1702;DHT22;848;48.354;10.064;2022-12-18T01:26:56;-3.80;99.90
1702;DHT22;848;48.354;10.064;2022-12-18T01:29:23;-3.90;99.90
1702;DHT22;848;48.354;10.064;2022-12-18T01:31:54;-4.00;99.90
1702;DHT22;848;48.354;10.064;2022-12-18T01:34:21;-4.20;99.90
1702;DHT22;848;48.354;10.064;2022-12-18T01:36:48;-4.20;99.90
1702;DHT22;848;48.354;10.064;2022-12-18T01:39:18;-4.30;99.90
1702;DHT22;848;48.354;10.064;2022-12-18T01:41:46;-4.20;99.90
1702;DHT22;848;48.354;10.064;2022-12-18T01:45:06;-4.20;99.90
1702;DHT22;848;48.354;10.064;2022-12-18T01:47:38;-4.10;99.90
1702;DHT22;848;48.354;10.064;2022-12-18T01:50:08;-4.00;99.90
1702;DHT22;848;48.354;10.064;2022-12-18T01:52:36;-4.00;99.90
1702;DHT22;848;48.354;10.064;2022-12-18T01:55:05;-3.90;99.90
1702;DHT22;848;48.354;10.064;2022-12-18T01:57:33;-3.80;99.90
1702;DHT22;848;48.354;10.064;2022-12-18T02:00:03;-3.80;99.90
1702;DHT22;848;48.354;10.064;2022-12-18T02:02:30;-3.90;99.90
1702;DHT22;848;48.354;10.064;2022-12-18T02:04:59;-3.80;99.90
1702;DHT22;848;48.354;10.064;2022-12-18T02:07:43;-3.80;99.90
1702;DHT22;848;48.354;10.064;2022-12-18T02:10:17;-3.80;99.90
1702;DHT22;848;48.354;10.064;2022-12-18T02:12:57;-3.90;99.90
1702;DHT22;848;48.354;10.064;2022-12-18T02:15:36;-3.80;99.90
1702;DHT22;848;48.354;10.064;2022-12-18T02:18:08;-3.90;99.90
1702;DHT22;848;48.354;10.064;2022-12-18T02:20:42;-3.80;99.90
1702;DHT22;848;48.354;10.064;2022-12-18T02:23:21;-3.90;99.90
1702;DHT22;848;48.354;10.064;2022-12-18T02:26:05;-3.90;99.90
1702;DHT22;848;48.354;10.064;2022-12-18T02:28:36;-3.80;99.90
1702;DHT22;848;48.354;10.064;2022-12-18T02:31:10;-3.70;99.90
1702;DHT22;848;48.354;10.064;2022-12-18T02:33:43;-3.70;99.90
1702;DHT22;848;48.354;10.064;2022-12-18T02:36:12;-3.70;99.90
1702;DHT22;848;48.354;10.064;2022-12-18T02:38:42;-3.70;99.90
1702;DHT22;848;48.354;10.064;2022-12-18T02:41:11;-3.70;99.90
1702;DHT22;848;48.354;10.064;2022-12-18T02:43:40;-3.60;99.90
1702;DHT22;848;48.354;10.064;2022-12-18T02:46:28;-3.60;99.90
1702;DHT22;848;48.354;10.064;2022-12-18T02:49:05;-3.70;99.90
1702;DHT22;848;48.354;10.064;2022-12-18T02:51:40;-3.90;99.90
1702;DHT22;848;48.354;10.064;2022-12-18T02:54:13;-4.10;99.90
1702;DHT22;848;48.354;10.064;2022-12-18T02:56:47;-4.00;99.90
1702;DHT22;848;48.354;10.064;2022-12-18T02:59:19;-3.90;99.90
1702;DHT22;848;48.354;10.064;2022-12-18T03:01:53;-3.80;99.90
1702;DHT22;848;48.354;10.064;2022-12-18T03:04:26;-4.00;99.90
1702;DHT22;848;48.354;10.064;2022-12-18T03:06:58;-4.00;99.90
1702;DHT22;848;48.354;10.064;2022-12-18T03:09:33;-3.80;99.90
1702;DHT22;848;48.354;10.064;2022-12-18T03:12:06;-3.80;99.90
1702;DHT22;848;48.354;10.064;2022-12-18T03:14:52;-3.80;99.90
1702;DHT22;848;48.354;10.064;2022-12-18T03:17:22;-3.70;99.90
1702;DHT22;848;48.354;10.064;2022-12-18T03:19:52;-3.70;99.90
1702;DHT22;848;48.354;10.064;2022-12-18T03:22:20;-3.60;99.90
1702;DHT22;848;48.354;10.064;2022-12-18T03:24:49;-3.70;99.90
1702;DHT22;848;48.354;10.064;2022-12-18T03:27:20;-3.90;99.90
1702;DHT22;848;48.354;10.064;2022-12-18T03:29:49;-4.00;99.90
1702;DHT22;848;48.354;10.064;2022-12-18T03:32:23;-4.20;99.90
1702;DHT22;848;48.354;10.064;2022-12-18T03:34:56;-4.00;99.90
1702;DHT22;848;48.354;10.064;2022-12-18T03:37:24;-3.90;99.90
1702;DHT22;848;48.354;10.064;2022-12-18T03:39:51;-3.80;99.90
1702;DHT22;848;48.354;10.064;2022-12-18T03:42:27;-3.90;99.90
1702;DHT22;848;48.354;10.064;2022-12-18T03:44:59;-3.90;99.90
1702;DHT22;848;48.354;10.064;2022-12-18T03:47:30;-3.90;99.90
1702;DHT22;848;48.354;10.064;2022-12-18T03:50:06;-4.00;99.90
1702;DHT22;848;48.354;10.064;2022-12-18T03:52:40;-4.00;99.90
1702;DHT22;848;48.354;10.064;2022-12-18T03:55:09;-3.90;99.90
1702;DHT22;848;48.354;10.064;2022-12-18T03:57:39;-3.90;99.90
1702;DHT22;848;48.354;10.064;2022-12-18T04:00:12;-4.00;99.90
1702;DHT22;848;48.354;10.064;2022-12-18T04:02:44;-4.00;99.90
1702;DHT22;848;48.354;10.064;2022-12-18T04:05:13;-4.00;99.90
1702;DHT22;848;48.354;10.064;2022-12-18T04:07:40;-4.10;99.90
1702;DHT22;848;48.354;10.064;2022-12-18T04:10:12;-4.10;99.90
1702;DHT22;848;48.354;10.064;2022-12-18T04:12:41;-4.10;99.90
1702;DHT22;848;48.354;10.064;2022-12-18T04:15:09;-4.10;99.90
1702;DHT22;848;48.354;10.064;2022-12-18T04:17:37;-4.20;99.90
1702;DHT22;848;48.354;10.064;2022-12-18T04:20:05;-4.20;99.90
1702;DHT22;848;48.354;10.064;2022-12-18T04:22:32;-4.10;99.90
1702;DHT22;848;48.354;10.064;2022-12-18T04:24:59;-4.10;99.90
1702;DHT22;848;48.354;10.064;2022-12-18T04:27:26;-4.10;99.90
1702;DHT22;848;48.354;10.064;2022-12-18T04:29:54;-4.10;99.90
1702;DHT22;848;48.354;10.064;2022-12-18T04:32:21;-4.00;99.90
1702;DHT22;848;48.354;10.064;2022-12-18T04:34:50;-3.90;99.90
1702;DHT22;848;48.354;10.064;2022-12-18T04:37:17;-3.80;99.90
1702;DHT22;848;48.354;10.064;2022-12-18T04:39:44;-3.90;99.90
1702;DHT22;848;48.354;10.064;2022-12-18T04:42:11;-4.10;99.90
1702;DHT22;848;48.354;10.064;2022-12-18T04:44:38;-4.10;99.90
1702;DHT22;848;48.354;10.064;2022-12-18T04:47:06;-4.00;99.90
1702;DHT22;848;48.354;10.064;2022-12-18T04:49:33;-3.90;99.90
1702;DHT22;848;48.354;10.064;2022-12-18T04:52:00;-3.90;99.90
1702;DHT22;848;48.354;10.064;2022-12-18T04:54:27;-4.10;99.90
1702;DHT22;848;48.354;10.064;2022-12-18T04:56:54;-4.10;99.90
1702;DHT22;848;48.354;10.064;2022-12-18T04:59:21;-4.10;99.90
1702;DHT22;848;48.354;10.064;2022-12-18T05:01:47;-4.10;99.90
1702;DHT22;848;48.354;10.064;2022-12-18T05:04:16;-4.00;99.90
1702;DHT22;848;48.354;10.064;2022-12-18T05:06:43;-3.80;99.90
1702;DHT22;848;48.354;10.064;2022-12-18T05:09:09;-3.80;99.90
1702;DHT22;848;48.354;10.064;2022-12-18T05:11:36;-3.90;99.90
1702;DHT22;848;48.354;10.064;2022-12-18T05:14:03;-3.90;99.90
1702;DHT22;848;48.354;10.064;2022-12-18T05:16:30;-3.90;99.90
1702;DHT22;848;48.354;10.064;2022-12-18T05:18:57;-3.80;99.90
1702;DHT22;848;48.354;10.064;2022-12-18T05:21:25;-3.80;99.90
1702;DHT22;848;48.354;10.064;2022-12-18T05:23:52;-3.90;99.90
1702;DHT22;848;48.354;10.064;2022-12-18T05:26:19;-4.00;99.90
1702;DHT22;848;48.354;10.064;2022-12-18T05:28:46;-3.90;99.90
1702;DHT22;848;48.354;10.064;2022-12-18T05:31:15;-3.90;99.90
1702;DHT22;848;48.354;10.064;2022-12-18T05:33:42;-3.80;99.90
1702;DHT22;848;48.354;10.064;2022-12-18T05:36:10;-3.70;99.90
1702;DHT22;848;48.354;10.064;2022-12-18T05:38:39;-3.90;99.90
1702;DHT22;848;48.354;10.064;2022-12-18T05:41:07;-4.00;99.90
1702;DHT22;848;48.354;10.064;2022-12-18T05:43:34;-4.10;99.90
1702;DHT22;848;48.354;10.064;2022-12-18T05:46:04;-4.10;99.90
1702;DHT22;848;48.354;10.064;2022-12-18T05:48:30;-4.20;99.90
1702;DHT22;848;48.354;10.064;2022-12-18T05:51:04;-4.10;99.90
1702;DHT22;848;48.354;10.064;2022-12-18T05:53:31;-4.10;99.90
1702;DHT22;848;48.354;10.064;2022-12-18T05:56:01;-4.20;99.90
1702;DHT22;848;48.354;10.064;2022-12-18T05:58:29;-4.20;99.90
1702;DHT22;848;48.354;10.064;2022-12-18T06:00:56;-4.20;99.90
1702;DHT22;848;48.354;10.064;2022-12-18T06:03:23;-4.00;99.90
1702;DHT22;848;48.354;10.064;2022-12-18T06:05:50;-3.90;99.90
1702;DHT22;848;48.354;10.064;2022-12-18T06:08:17;-3.80;99.90
1702;DHT22;848;48.354;10.064;2022-12-18T06:10:50;-3.80;99.90
1702;DHT22;848;48.354;10.064;2022-12-18T06:13:19;-3.70;99.90
1702;DHT22;848;48.354;10.064;2022-12-18T06:15:46;-3.60;99.90
1702;DHT22;848;48.354;10.064;2022-12-18T06:18:13;-3.70;99.90
1702;DHT22;848;48.354;10.064;2022-12-18T06:20:40;-3.70;99.90
1702;DHT22;848;48.354;10.064;2022-12-18T06:23:09;-3.90;99.90
1702;DHT22;848;48.354;10.064;2022-12-18T06:25:38;-4.00;99.90
1702;DHT22;848;48.354;10.064;2022-12-18T06:28:05;-3.90;99.90
1702;DHT22;848;48.354;10.064;2022-12-18T06:30:33;-3.80;99.90
1702;DHT22;848;48.354;10.064;2022-12-18T06:33:01;-3.70;99.90
1702;DHT22;848;48.354;10.064;2022-12-18T06:35:28;-3.90;99.90
1702;DHT22;848;48.354;10.064;2022-12-18T06:37:55;-3.90;99.90
1702;DHT22;848;48.354;10.064;2022-12-18T06:40:22;-3.90;99.90
1702;DHT22;848;48.354;10.064;2022-12-18T06:42:49;-3.80;99.90
1702;DHT22;848;48.354;10.064;2022-12-18T06:45:19;-3.70;99.90
1702;DHT22;848;48.354;10.064;2022-12-18T06:47:47;-3.80;99.90
1702;DHT22;848;48.354;10.064;2022-12-18T06:50:14;-3.90;99.90
1702;DHT22;848;48.354;10.064;2022-12-18T06:52:41;-3.90;99.90
1702;DHT22;848;48.354;10.064;2022-12-18T06:55:10;-3.90;99.90
1702;DHT22;848;48.354;10.064;2022-12-18T06:57:37;-3.90;99.90
1702;DHT22;848;48.354;10.064;2022-12-18T07:00:06;-3.80;99.90
1702;DHT22;848;48.354;10.064;2022-12-18T07:02:33;-3.80;99.90
1702;DHT22;848;48.354;10.064;2022-12-18T07:05:02;-3.70;99.90
1702;DHT22;848;48.354;10.064;2022-12-18T07:07:29;-3.70;99.90
1702;DHT22;848;48.354;10.064;2022-12-18T07:09:56;-3.80;99.90
1702;DHT22;848;48.354;10.064;2022-12-18T07:12:23;-3.80;99.90
1702;DHT22;848;48.354;10.064;2022-12-18T07:14:51;-3.80;99.90
1702;DHT22;848;48.354;10.064;2022-12-18T07:17:18;-3.70;99.90
1702;DHT22;848;48.354;10.064;2022-12-18T07:19:45;-3.60;99.90
1702;DHT22;848;48.354;10.064;2022-12-18T07:22:13;-3.50;99.90
1702;DHT22;848;48.354;10.064;2022-12-18T07:24:40;-3.50;99.90
1702;DHT22;848;48.354;10.064;2022-12-18T07:27:07;-3.50;99.90
1702;DHT22;848;48.354;10.064;2022-12-18T07:29:34;-3.50;99.90
1702;DHT22;848;48.354;10.064;2022-12-18T07:32:01;-3.60;99.90
1702;DHT22;848;48.354;10.064;2022-12-18T07:34:28;-3.80;99.90
1702;DHT22;848;48.354;10.064;2022-12-18T07:36:55;-3.80;99.90
1702;DHT22;848;48.354;10.064;2022-12-18T07:39:23;-3.80;99.90
1702;DHT22;848;48.354;10.064;2022-12-18T07:41:50;-3.90;99.90
1702;DHT22;848;48.354;10.064;2022-12-18T07:44:31;-4.00;99.90
1702;DHT22;848;48.354;10.064;2022-12-18T07:46:57;-4.00;99.90
1702;DHT22;848;48.354;10.064;2022-12-18T07:49:24;-3.90;99.90
1702;DHT22;848;48.354;10.064;2022-12-18T07:51:53;-3.80;99.90
1702;DHT22;848;48.354;10.064;2022-12-18T07:54:20;-3.70;99.90
1702;DHT22;848;48.354;10.064;2022-12-18T07:56:48;-3.80;99.90
1702;DHT22;848;48.354;10.064;2022-12-18T07:59:15;-3.80;99.90
1702;DHT22;848;48.354;10.064;2022-12-18T08:01:42;-3.80;99.90
1702;DHT22;848;48.354;10.064;2022-12-18T08:04:09;-3.70;99.90
1702;DHT22;848;48.354;10.064;2022-12-18T08:06:36;-3.60;99.90
1702;DHT22;848;48.354;10.064;2022-12-18T08:09:03;-3.50;99.90
1702;DHT22;848;48.354;10.064;2022-12-18T08:11:30;-3.20;99.90
1702;DHT22;848;48.354;10.064;2022-12-18T08:14:00;-3.50;99.90
1702;DHT22;848;48.354;10.064;2022-12-18T08:16:27;-3.30;99.90
1702;DHT22;848;48.354;10.064;2022-12-18T08:18:54;-3.30;99.90
1702;DHT22;848;48.354;10.064;2022-12-18T08:21:23;-3.30;99.90
1702;DHT22;848;48.354;10.064;2022-12-18T08:23:51;-3.50;99.90
1702;DHT22;848;48.354;10.064;2022-12-18T08:26:18;-3.80;99.90
1702;DHT22;848;48.354;10.064;2022-12-18T08:28:45;-3.70;99.90
1702;DHT22;848;48.354;10.064;2022-12-18T08:31:14;-3.60;99.90
1702;DHT22;848;48.354;10.064;2022-12-18T08:33:41;-3.60;99.90
1702;DHT22;848;48.354;10.064;2022-12-18T08:36:09;-3.60;99.90
1702;DHT22;848;48.354;10.064;2022-12-18T08:38:36;-3.60;99.90
1702;DHT22;848;48.354;10.064;2022-12-18T08:41:06;-3.60;99.90
1702;DHT22;848;48.354;10.064;2022-12-18T08:43:34;-3.50;99.90
1702;DHT22;848;48.354;10.064;2022-12-18T08:46:21;-3.50;99.90
1702;DHT22;848;48.354;10.064;2022-12-18T08:48:50;-3.30;99.90
1702;DHT22;848;48.354;10.064;2022-12-18T08:51:17;-3.30;99.90
1702;DHT22;848;48.354;10.064;2022-12-18T08:53:45;-3.20;99.90
1702;DHT22;848;48.354;10.064;2022-12-18T08:56:13;-3.20;99.90
1702;DHT22;848;48.354;10.064;2022-12-18T08:58:40;-3.20;99.90
1702;DHT22;848;48.354;10.064;2022-12-18T09:01:08;-3.20;99.90
1702;DHT22;848;48.354;10.064;2022-12-18T09:03:37;-3.20;99.90
1702;DHT22;848;48.354;10.064;2022-12-18T09:06:05;-3.10;99.90
1702;DHT22;848;48.354;10.064;2022-12-18T09:08:32;-3.00;99.90
1702;DHT22;848;48.354;10.064;2022-12-18T09:11:01;-2.90;99.90
1702;DHT22;848;48.354;10.064;2022-12-18T09:13:28;-2.90;99.90
1702;DHT22;848;48.354;10.064;2022-12-18T09:15:55;-2.80;99.90
1702;DHT22;848;48.354;10.064;2022-12-18T09:18:23;-2.70;99.90
1702;DHT22;848;48.354;10.064;2022-12-18T09:20:51;-2.60;99.90
1702;DHT22;848;48.354;10.064;2022-12-18T09:23:19;-2.60;99.90
1702;DHT22;848;48.354;10.064;2022-12-18T09:25:46;-2.40;99.90
1702;DHT22;848;48.354;10.064;2022-12-18T09:28:14;-2.40;99.90
1702;DHT22;848;48.354;10.064;2022-12-18T09:30:44;-2.30;99.90
1702;DHT22;848;48.354;10.064;2022-12-18T09:33:11;-2.30;99.90
1702;DHT22;848;48.354;10.064;2022-12-18T09:35:40;-2.10;99.90
1702;DHT22;848;48.354;10.064;2022-12-18T09:38:12;-2.10;99.90
1702;DHT22;848;48.354;10.064;2022-12-18T09:40:41;-2.00;99.90
1702;DHT22;848;48.354;10.064;2022-12-18T09:43:13;-1.90;99.90
1702;DHT22;848;48.354;10.064;2022-12-18T09:45:45;-1.80;99.90
1702;DHT22;848;48.354;10.064;2022-12-18T09:48:17;-1.80;99.90
1702;DHT22;848;48.354;10.064;2022-12-18T09:50:46;-1.70;99.90
1702;DHT22;848;48.354;10.064;2022-12-18T09:53:18;-1.70;99.90
1702;DHT22;848;48.354;10.064;2022-12-18T09:55:47;-1.70;99.90
1702;DHT22;848;48.354;10.064;2022-12-18T09:58:19;-1.60;99.90
1702;DHT22;848;48.354;10.064;2022-12-18T10:00:47;-1.60;99.90
1702;DHT22;848;48.354;10.064;2022-12-18T10:03:15;-1.60;99.90
1702;DHT22;848;48.354;10.064;2022-12-18T10:05:48;-1.60;99.90
1702;DHT22;848;48.354;10.064;2022-12-18T10:08:24;-1.80;99.90
1702;DHT22;848;48.354;10.064;2022-12-18T10:10:56;-1.50;99.90
1702;DHT22;848;48.354;10.064;2022-12-18T10:13:29;-1.40;99.90
1702;DHT22;848;48.354;10.064;2022-12-18T10:16:09;-1.30;99.90
1702;DHT22;848;48.354;10.064;2022-12-18T10:19:02;-1.30;99.90
1702;DHT22;848;48.354;10.064;2022-12-18T10:21:33;-1.30;99.90
1702;DHT22;848;48.354;10.064;2022-12-18T10:24:14;-1.30;99.90
1702;DHT22;848;48.354;10.064;2022-12-18T10:26:45;-1.40;99.90
1702;DHT22;848;48.354;10.064;2022-12-18T10:29:15;-1.40;99.90
1702;DHT22;848;48.354;10.064;2022-12-18T10:31:42;-1.40;99.90
1702;DHT22;848;48.354;10.064;2022-12-18T10:34:09;-1.30;99.90
1702;DHT22;848;48.354;10.064;2022-12-18T10:36:41;-1.10;99.90
1702;DHT22;848;48.354;10.064;2022-12-18T10:39:18;-1.20;99.90
1702;DHT22;848;48.354;10.064;2022-12-18T10:41:45;-1.20;99.90
1702;DHT22;848;48.354;10.064;2022-12-18T10:44:17;-1.30;99.90
1702;DHT22;848;48.354;10.064;2022-12-18T10:46:45;-1.20;99.90
1702;DHT22;848;48.354;10.064;2022-12-18T10:49:26;-1.20;99.90
1702;DHT22;848;48.354;10.064;2022-12-18T10:52:07;-1.10;99.90
1702;DHT22;848;48.354;10.064;2022-12-18T10:54:39;-1.10;99.90
1702;DHT22;848;48.354;10.064;2022-12-18T10:57:17;-1.00;99.90
1702;DHT22;848;48.354;10.064;2022-12-18T10:59:57;-1.10;99.90
1702;DHT22;848;48.354;10.064;2022-12-18T11:02:34;-1.00;99.90
1702;DHT22;848;48.354;10.064;2022-12-18T11:05:02;-1.10;99.90
1702;DHT22;848;48.354;10.064;2022-12-18T11:07:48;-1.30;99.90
1702;DHT22;848;48.354;10.064;2022-12-18T11:10:18;-1.30;99.90
1702;DHT22;848;48.354;10.064;2022-12-18T11:12:46;-1.10;99.90
1702;DHT22;848;48.354;10.064;2022-12-18T11:15:16;-1.20;99.90
1702;DHT22;848;48.354;10.064;2022-12-18T11:17:48;-0.90;99.90
1702;DHT22;848;48.354;10.064;2022-12-18T11:20:30;-1.20;99.90
1702;DHT22;848;48.354;10.064;2022-12-18T11:22:59;-1.20;99.90
1702;DHT22;848;48.354;10.064;2022-12-18T11:25:28;-1.20;99.90
1702;DHT22;848;48.354;10.064;2022-12-18T11:27:58;-1.20;99.90
1702;DHT22;848;48.354;10.064;2022-12-18T11:30:27;-1.10;99.90
1702;DHT22;848;48.354;10.064;2022-12-18T11:32:58;-1.10;99.90
1702;DHT22;848;48.354;10.064;2022-12-18T11:35:36;-0.90;99.90
1702;DHT22;848;48.354;10.064;2022-12-18T11:38:10;-1.10;99.90
1702;DHT22;848;48.354;10.064;2022-12-18T11:40:42;-1.20;99.90
1702;DHT22;848;48.354;10.064;2022-12-18T11:43:14;-1.20;99.90
1702;DHT22;848;48.354;10.064;2022-12-18T11:45:48;-1.30;99.90
1702;DHT22;848;48.354;10.064;2022-12-18T11:48:18;-1.10;99.90
1702;DHT22;848;48.354;10.064;2022-12-18T11:50:51;-1.20;99.90
1702;DHT22;848;48.354;10.064;2022-12-18T11:53:19;-1.10;99.90
1702;DHT22;848;48.354;10.064;2022-12-18T11:55:56;-1.10;99.90
1702;DHT22;848;48.354;10.064;2022-12-18T11:58:37;-1.10;99.90
1702;DHT22;848;48.354;10.064;2022-12-18T12:01:16;-1.10;99.90
1702;DHT22;848;48.354;10.064;2022-12-18T12:06:43;-1.10;99.90
1702;DHT22;848;48.354;10.064;2022-12-18T12:09:17;-1.50;99.90
1702;DHT22;848;48.354;10.064;2022-12-18T12:11:58;-1.70;99.90
1702;DHT22;848;48.354;10.064;2022-12-18T12:14:39;-1.60;99.90
1702;DHT22;848;48.354;10.064;2022-12-18T12:17:15;-1.60;99.90
1702;DHT22;848;48.354;10.064;2022-12-18T12:19:48;-1.50;99.90
1702;DHT22;848;48.354;10.064;2022-12-18T12:22:24;-1.40;99.90
1702;DHT22;848;48.354;10.064;2022-12-18T12:25:03;-1.40;99.90
1702;DHT22;848;48.354;10.064;2022-12-18T12:27:44;-1.30;99.90
1702;DHT22;848;48.354;10.064;2022-12-18T12:30:20;-1.30;99.90
1702;DHT22;848;48.354;10.064;2022-12-18T12:33:06;-1.30;99.90
1702;DHT22;848;48.354;10.064;2022-12-18T12:35:46;-1.30;99.90
1702;DHT22;848;48.354;10.064;2022-12-18T12:38:17;-1.30;99.90
1702;DHT22;848;48.354;10.064;2022-12-18T12:40:51;-1.30;99.90
1702;DHT22;848;48.354;10.064;2022-12-18T12:43:28;-1.30;99.90
1702;DHT22;848;48.354;10.064;2022-12-18T12:45:58;-1.20;99.90
1702;DHT22;848;48.354;10.064;2022-12-18T12:48:35;-1.30;99.90
1702;DHT22;848;48.354;10.064;2022-12-18T12:51:10;-1.20;99.90
1702;DHT22;848;48.354;10.064;2022-12-18T12:53:38;-1.40;99.90
1702;DHT22;848;48.354;10.064;2022-12-18T12:56:08;-1.60;99.90
1702;DHT22;848;48.354;10.064;2022-12-18T12:58:45;-1.80;99.90
1702;DHT22;848;48.354;10.064;2022-12-18T13:01:20;-1.70;99.90
1702;DHT22;848;48.354;10.064;2022-12-18T13:03:56;-1.50;99.90
1702;DHT22;848;48.354;10.064;2022-12-18T13:06:33;-1.30;99.90
1702;DHT22;848;48.354;10.064;2022-12-18T13:09:01;-1.30;99.90
1702;DHT22;848;48.354;10.064;2022-12-18T13:11:36;-1.20;99.90
1702;DHT22;848;48.354;10.064;2022-12-18T13:14:36;-1.20;99.90
1702;DHT22;848;48.354;10.064;2022-12-18T13:17:30;-1.20;99.90
1702;DHT22;848;48.354;10.064;2022-12-18T13:20:09;-1.20;99.90
1702;DHT22;848;48.354;10.064;2022-12-18T13:22:37;-1.10;99.90
1702;DHT22;848;48.354;10.064;2022-12-18T13:25:29;-1.10;99.90
1702;DHT22;848;48.354;10.064;2022-12-18T13:28:03;-1.10;99.90
1702;DHT22;848;48.354;10.064;2022-12-18T13:30:47;-1.30;99.90
1702;DHT22;848;48.354;10.064;2022-12-18T13:33:47;-1.50;99.90
1702;DHT22;848;48.354;10.064;2022-12-18T13:36:30;-1.40;99.90
1702;DHT22;848;48.354;10.064;2022-12-18T13:39:20;-1.20;99.90
1702;DHT22;848;48.354;10.064;2022-12-18T13:41:49;-1.20;99.90
1702;DHT22;848;48.354;10.064;2022-12-18T13:44:25;-1.30;99.90
1702;DHT22;848;48.354;10.064;2022-12-18T13:46:57;-1.20;99.90
1702;DHT22;848;48.354;10.064;2022-12-18T13:49:27;-1.20;99.90
1702;DHT22;848;48.354;10.064;2022-12-18T13:51:56;-1.20;99.90
1702;DHT22;848;48.354;10.064;2022-12-18T13:54:30;-2.00;99.90
1702;DHT22;848;48.354;10.064;2022-12-18T13:56:59;-2.00;99.90
1702;DHT22;848;48.354;10.064;2022-12-18T13:59:32;-1.80;99.90
1702;DHT22;848;48.354;10.064;2022-12-18T14:02:11;-1.70;99.90
1702;DHT22;848;48.354;10.064;2022-12-18T14:04:39;-1.50;99.90
1702;DHT22;848;48.354;10.064;2022-12-18T14:07:09;-1.40;99.90
1702;DHT22;848;48.354;10.064;2022-12-18T14:09:41;-1.30;99.90
1702;DHT22;848;48.354;10.064;2022-12-18T14:12:14;-1.30;99.90
1702;DHT22;848;48.354;10.064;2022-12-18T14:15:00;-1.50;99.90
1702;DHT22;848;48.354;10.064;2022-12-18T14:17:28;-1.50;99.90
1702;DHT22;848;48.354;10.064;2022-12-18T14:19:58;-1.60;99.90
1702;DHT22;848;48.354;10.064;2022-12-18T14:22:25;-1.50;99.90
1702;DHT22;848;48.354;10.064;2022-12-18T14:25:19;-1.40;99.90
1702;DHT22;848;48.354;10.064;2022-12-18T14:27:49;-1.50;99.90
1702;DHT22;848;48.354;10.064;2022-12-18T14:30:28;-1.70;99.90
1702;DHT22;848;48.354;10.064;2022-12-18T14:33:09;-1.50;99.90
1702;DHT22;848;48.354;10.064;2022-12-18T14:35:38;-1.40;99.90
1702;DHT22;848;48.354;10.064;2022-12-18T14:38:20;-1.30;99.90
1702;DHT22;848;48.354;10.064;2022-12-18T14:40:51;-1.30;99.90
1702;DHT22;848;48.354;10.064;2022-12-18T14:43:18;-1.30;99.90
1702;DHT22;848;48.354;10.064;2022-12-18T14:45:45;-1.30;99.90
1702;DHT22;848;48.354;10.064;2022-12-18T14:48:17;-1.30;99.90
1702;DHT22;848;48.354;10.064;2022-12-18T14:50:45;-1.30;99.90
1702;DHT22;848;48.354;10.064;2022-12-18T14:53:22;-1.30;99.90
1702;DHT22;848;48.354;10.064;2022-12-18T14:55:49;-1.30;99.90
1702;DHT22;848;48.354;10.064;2022-12-18T14:58:17;-1.30;99.90
1702;DHT22;848;48.354;10.064;2022-12-18T15:00:44;-1.40;99.90
1702;DHT22;848;48.354;10.064;2022-12-18T15:03:15;-1.50;99.90
1702;DHT22;848;48.354;10.064;2022-12-18T15:05:45;-1.50;99.90
1702;DHT22;848;48.354;10.064;2022-12-18T15:08:29;-1.40;99.90
1702;DHT22;848;48.354;10.064;2022-12-18T15:10:57;-1.40;99.90
1702;DHT22;848;48.354;10.064;2022-12-18T15:13:24;-1.30;99.90
1702;DHT22;848;48.354;10.064;2022-12-18T15:15:52;-1.40;99.90
1702;DHT22;848;48.354;10.064;2022-12-18T15:18:23;-1.50;99.90
1702;DHT22;848;48.354;10.064;2022-12-18T15:20:54;-1.30;99.90
1702;DHT22;848;48.354;10.064;2022-12-18T15:23:31;-1.50;99.90
1702;DHT22;848;48.354;10.064;2022-12-18T15:26:01;-1.50;99.90
1702;DHT22;848;48.354;10.064;2022-12-18T15:28:32;-1.50;99.90
1702;DHT22;848;48.354;10.064;2022-12-18T15:31:23;-1.50;99.90
1702;DHT22;848;48.354;10.064;2022-12-18T15:34:10;-1.50;99.90
1702;DHT22;848;48.354;10.064;2022-12-18T15:36:38;-1.50;99.90
1702;DHT22;848;48.354;10.064;2022-12-18T15:39:06;-1.50;99.90
1702;DHT22;848;48.354;10.064;2022-12-18T15:41:34;-1.40;99.90
1702;DHT22;848;48.354;10.064;2022-12-18T15:44:02;-1.50;99.90
1702;DHT22;848;48.354;10.064;2022-12-18T15:46:28;-1.60;99.90
1702;DHT22;848;48.354;10.064;2022-12-18T15:48:57;-1.70;99.90
1702;DHT22;848;48.354;10.064;2022-12-18T15:51:27;-1.70;99.90
1702;DHT22;848;48.354;10.064;2022-12-18T15:53:56;-1.70;99.90
1702;DHT22;848;48.354;10.064;2022-12-18T15:56:25;-1.70;99.90
1702;DHT22;848;48.354;10.064;2022-12-18T15:59:12;-1.70;99.90
1702;DHT22;848;48.354;10.064;2022-12-18T16:01:39;-1.70;99.90
1702;DHT22;848;48.354;10.064;2022-12-18T16:04:06;-1.70;99.90
1702;DHT22;848;48.354;10.064;2022-12-18T16:06:35;-1.70;99.90
1702;DHT22;848;48.354;10.064;2022-12-18T16:09:01;-1.70;99.90
1702;DHT22;848;48.354;10.064;2022-12-18T16:11:29;-1.70;99.90
1702;DHT22;848;48.354;10.064;2022-12-18T16:14:15;-1.80;99.90
1702;DHT22;848;48.354;10.064;2022-12-18T16:16:43;-2.00;99.90
1702;DHT22;848;48.354;10.064;2022-12-18T16:19:10;-1.90;99.90
1702;DHT22;848;48.354;10.064;2022-12-18T16:21:39;-2.00;99.90
1702;DHT22;848;48.354;10.064;2022-12-18T16:24:08;-2.60;99.90
1702;DHT22;848;48.354;10.064;2022-12-18T16:26:39;-2.20;99.90
1702;DHT22;848;48.354;10.064;2022-12-18T16:29:07;-2.20;99.90